sensor_id;sensor_type;location;lat;lon;timestamp;temperature;humidity
24011;DHT22;12217;50.792;4.372;2023-02-25T00:00:06;7.10;99.90
24011;DHT22;12217;50.792;4.372;2023-02-25T00:02:43;7.20;99.90
24011;DHT22;12217;50.792;4.372;2023-02-25T00:05:09;7.30;99.90
24011;DHT22;12217;50.792;4.372;2023-02-25T00:07:35;6.90;99.90
24011;DHT22;12217;50.792;4.372;2023-02-25T00:10:05;6.80;99.90
24011;DHT22;12217;50.792;4.372;2023-02-25T00:12:31;6.90;99.90
24011;DHT22;12217;50.792;4.372;2023-02-25T00:14:57;6.90;99.90
24011;DHT22;12217;50.792;4.372;2023-02-25T00:17:22;6.90;99.90
24011;DHT22;12217;50.792;4.372;2023-02-25T00:19:48;6.80;99.90
24011;DHT22;12217;50.792;4.372;2023-02-25T00:22:14;6.80;99.90
24011;DHT22;12217;50.792;4.372;2023-02-25T00:24:39;7.00;99.90
24011;DHT22;12217;50.792;4.372;2023-02-25T00:27:05;7.20;99.90
24011;DHT22;12217;50.792;4.372;2023-02-25T00:29:31;7.10;99.90
24011;DHT22;12217;50.792;4.372;2023-02-25T00:31:57;7.10;99.90
24011;DHT22;12217;50.792;4.372;2023-02-25T00:34:22;7.10;99.90
24011;DHT22;12217;50.792;4.372;2023-02-25T00:36:48;7.30;99.90
24011;DHT22;12217;50.792;4.372;2023-02-25T00:39:15;7.10;99.90
24011;DHT22;12217;50.792;4.372;2023-02-25T00:41:40;7.20;99.90
24011;DHT22;12217;50.792;4.372;2023-02-25T00:44:06;7.10;99.90
24011;DHT22;12217;50.792;4.372;2023-02-25T00:46:32;7.10;99.90
24011;DHT22;12217;50.792;4.372;2023-02-25T00:48:58;7.30;99.90
24011;DHT22;12217;50.792;4.372;2023-02-25T00:51:27;7.20;99.90
24011;DHT22;12217;50.792;4.372;2023-02-25T00:53:54;7.30;99.90
24011;DHT22;12217;50.792;4.372;2023-02-25T00:56:22;7.30;99.90
24011;DHT22;12217;50.792;4.372;2023-02-25T00:58:49;7.30;99.90
24011;DHT22;12217;50.792;4.372;2023-02-25T01:01:27;7.30;99.90
24011;DHT22;12217;50.792;4.372;2023-02-25T01:03:54;7.40;99.90
24011;DHT22;12217;50.792;4.372;2023-02-25T01:06:21;7.10;99.90
24011;DHT22;12217;50.792;4.372;2023-02-25T01:08:47;7.20;99.90
24011;DHT22;12217;50.792;4.372;2023-02-25T01:11:16;7.20;99.90
24011;DHT22;12217;50.792;4.372;2023-02-25T01:13:46;7.20;99.90
24011;DHT22;12217;50.792;4.372;2023-02-25T01:16:14;7.20;99.90
24011;DHT22;12217;50.792;4.372;2023-02-25T01:18:41;7.30;99.90
24011;DHT22;12217;50.792;4.372;2023-02-25T01:21:20;7.20;99.90
24011;DHT22;12217;50.792;4.372;2023-02-25T01:23:47;7.10;99.90
24011;DHT22;12217;50.792;4.372;2023-02-25T01:26:14;7.20;99.90
24011;DHT22;12217;50.792;4.372;2023-02-25T01:28:40;7.30;99.90
24011;DHT22;12217;50.792;4.372;2023-02-25T01:31:07;7.30;99.90
24011;DHT22;12217;50.792;4.372;2023-02-25T01:33:41;7.20;99.90
24011;DHT22;12217;50.792;4.372;2023-02-25T01:36:08;7.30;99.90
24011;DHT22;12217;50.792;4.372;2023-02-25T01:38:33;7.20;99.90
24011;DHT22;12217;50.792;4.372;2023-02-25T01:41:00;7.10;99.90
24011;DHT22;12217;50.792;4.372;2023-02-25T01:43:26;7.10;99.90
24011;DHT22;12217;50.792;4.372;2023-02-25T01:45:53;7.20;99.90
24011;DHT22;12217;50.792;4.372;2023-02-25T01:48:25;7.30;99.90
24011;DHT22;12217;50.792;4.372;2023-02-25T01:50:58;7.40;99.90
24011;DHT22;12217;50.792;4.372;2023-02-25T01:53:31;7.40;99.90
24011;DHT22;12217;50.792;4.372;2023-02-25T01:55:58;7.20;99.90
24011;DHT22;12217;50.792;4.372;2023-02-25T01:58:26;7.10;99.90
24011;DHT22;12217;50.792;4.372;2023-02-25T02:00:52;7.00;99.90
24011;DHT22;12217;50.792;4.372;2023-02-25T02:03:27;6.40;99.90
24011;DHT22;12217;50.792;4.372;2023-02-25T02:06:15;6.30;99.90
24011;DHT22;12217;50.792;4.372;2023-02-25T02:08:43;6.50;99.90
24011;DHT22;12217;50.792;4.372;2023-02-25T02:11:10;6.40;99.90
24011;DHT22;12217;50.792;4.372;2023-02-25T02:13:39;6.50;99.90
24011;DHT22;12217;50.792;4.372;2023-02-25T02:30:39;6.90;99.90
24011;DHT22;12217;50.792;4.372;2023-02-25T02:35:56;6.90;99.90
24011;DHT22;12217;50.792;4.372;2023-02-25T02:41:33;6.70;99.90
24011;DHT22;12217;50.792;4.372;2023-02-25T02:44:16;6.80;99.90
24011;DHT22;12217;50.792;4.372;2023-02-25T02:47:53;6.90;99.90
24011;DHT22;12217;50.792;4.372;2023-02-25T02:50:01;6.80;99.90
24011;DHT22;12217;50.792;4.372;2023-02-25T02:52:31;6.60;99.90
24011;DHT22;12217;50.792;4.372;2023-02-25T02:55:15;6.80;99.90
24011;DHT22;12217;50.792;4.372;2023-02-25T02:57:47;7.00;99.90
24011;DHT22;12217;50.792;4.372;2023-02-25T03:00:16;6.80;99.90
24011;DHT22;12217;50.792;4.372;2023-02-25T03:02:54;6.90;99.90
24011;DHT22;12217;50.792;4.372;2023-02-25T03:05:23;6.80;99.90
24011;DHT22;12217;50.792;4.372;2023-02-25T03:08:05;6.90;99.90
24011;DHT22;12217;50.792;4.372;2023-02-25T03:10:32;6.90;99.90
24011;DHT22;12217;50.792;4.372;2023-02-25T03:12:58;6.70;99.90
24011;DHT22;12217;50.792;4.372;2023-02-25T03:15:24;6.40;99.90
24011;DHT22;12217;50.792;4.372;2023-02-25T03:17:53;6.60;99.90
24011;DHT22;12217;50.792;4.372;2023-02-25T03:20:27;6.60;99.90
24011;DHT22;12217;50.792;4.372;2023-02-25T03:22:57;6.80;99.90
24011;DHT22;12217;50.792;4.372;2023-02-25T03:25:28;6.90;99.90
24011;DHT22;12217;50.792;4.372;2023-02-25T03:28:01;6.80;99.90
24011;DHT22;12217;50.792;4.372;2023-02-25T03:30:28;6.80;99.90
24011;DHT22;12217;50.792;4.372;2023-02-25T03:33:00;6.40;99.90
24011;DHT22;12217;50.792;4.372;2023-02-25T03:35:28;6.30;99.90
24011;DHT22;12217;50.792;4.372;2023-02-25T03:38:08;6.40;99.90
24011;DHT22;12217;50.792;4.372;2023-02-25T03:40:36;6.50;99.90
24011;DHT22;12217;50.792;4.372;2023-02-25T03:43:10;6.50;99.90
24011;DHT22;12217;50.792;4.372;2023-02-25T03:45:39;6.70;99.90
24011;DHT22;12217;50.792;4.372;2023-02-25T03:48:06;6.60;99.90
24011;DHT22;12217;50.792;4.372;2023-02-25T03:50:37;6.80;99.90
24011;DHT22;12217;50.792;4.372;2023-02-25T03:53:05;6.80;99.90
24011;DHT22;12217;50.792;4.372;2023-02-25T03:55:30;6.60;99.90
24011;DHT22;12217;50.792;4.372;2023-02-25T03:57:56;6.70;99.90
24011;DHT22;12217;50.792;4.372;2023-02-25T04:00:28;6.60;99.90
24011;DHT22;12217;50.792;4.372;2023-02-25T04:02:54;6.60;99.90
24011;DHT22;12217;50.792;4.372;2023-02-25T04:05:21;6.90;99.90
24011;DHT22;12217;50.792;4.372;2023-02-25T04:07:47;7.00;99.90
24011;DHT22;12217;50.792;4.372;2023-02-25T04:10:15;7.00;99.90
24011;DHT22;12217;50.792;4.372;2023-02-25T04:12:41;7.00;99.90
24011;DHT22;12217;50.792;4.372;2023-02-25T04:15:07;6.80;99.90
24011;DHT22;12217;50.792;4.372;2023-02-25T04:17:34;6.70;99.90
24011;DHT22;12217;50.792;4.372;2023-02-25T04:20:00;6.50;99.90
24011;DHT22;12217;50.792;4.372;2023-02-25T04:22:25;6.50;99.90
24011;DHT22;12217;50.792;4.372;2023-02-25T04:24:51;6.70;99.90
24011;DHT22;12217;50.792;4.372;2023-02-25T04:27:17;6.70;99.90
24011;DHT22;12217;50.792;4.372;2023-02-25T04:29:43;6.50;99.90
24011;DHT22;12217;50.792;4.372;2023-02-25T04:32:10;6.30;99.90
24011;DHT22;12217;50.792;4.372;2023-02-25T04:34:36;6.40;99.90
24011;DHT22;12217;50.792;4.372;2023-02-25T04:37:02;6.60;99.90
24011;DHT22;12217;50.792;4.372;2023-02-25T04:39:30;6.50;99.90
24011;DHT22;12217;50.792;4.372;2023-02-25T04:41:56;6.50;99.90
24011;DHT22;12217;50.792;4.372;2023-02-25T04:44:21;6.30;99.90
24011;DHT22;12217;50.792;4.372;2023-02-25T04:46:47;6.40;99.90
24011;DHT22;12217;50.792;4.372;2023-02-25T04:49:17;6.40;99.90
24011;DHT22;12217;50.792;4.372;2023-02-25T04:51:44;6.50;99.90
24011;DHT22;12217;50.792;4.372;2023-02-25T04:54:10;6.50;99.90
24011;DHT22;12217;50.792;4.372;2023-02-25T04:56:36;6.40;99.90
24011;DHT22;12217;50.792;4.372;2023-02-25T04:59:02;6.50;99.90
24011;DHT22;12217;50.792;4.372;2023-02-25T05:01:28;6.30;99.90
24011;DHT22;12217;50.792;4.372;2023-02-25T05:03:55;6.00;99.90
24011;DHT22;12217;50.792;4.372;2023-02-25T05:06:23;6.20;99.90
24011;DHT22;12217;50.792;4.372;2023-02-25T05:08:49;6.40;99.90
24011;DHT22;12217;50.792;4.372;2023-02-25T05:11:16;6.50;99.90
24011;DHT22;12217;50.792;4.372;2023-02-25T05:13:41;6.70;99.90
24011;DHT22;12217;50.792;4.372;2023-02-25T05:16:13;6.70;99.90
24011;DHT22;12217;50.792;4.372;2023-02-25T05:18:42;6.70;99.90
24011;DHT22;12217;50.792;4.372;2023-02-25T05:21:10;6.50;99.90
24011;DHT22;12217;50.792;4.372;2023-02-25T05:23:37;6.50;99.90
24011;DHT22;12217;50.792;4.372;2023-02-25T05:26:03;6.40;99.90
24011;DHT22;12217;50.792;4.372;2023-02-25T05:28:29;6.60;99.90
24011;DHT22;12217;50.792;4.372;2023-02-25T05:30:55;6.20;99.90
24011;DHT22;12217;50.792;4.372;2023-02-25T05:33:21;6.00;99.90
24011;DHT22;12217;50.792;4.372;2023-02-25T05:35:47;6.10;99.90
24011;DHT22;12217;50.792;4.372;2023-02-25T05:38:13;6.00;99.90
24011;DHT22;12217;50.792;4.372;2023-02-25T05:40:39;5.80;99.90
24011;DHT22;12217;50.792;4.372;2023-02-25T05:43:04;5.80;99.90
24011;DHT22;12217;50.792;4.372;2023-02-25T05:45:30;5.60;99.90
24011;DHT22;12217;50.792;4.372;2023-02-25T05:47:56;5.50;99.90
24011;DHT22;12217;50.792;4.372;2023-02-25T05:50:22;5.80;99.90
24011;DHT22;12217;50.792;4.372;2023-02-25T05:52:48;6.00;99.90
24011;DHT22;12217;50.792;4.372;2023-02-25T05:55:13;5.90;99.90
24011;DHT22;12217;50.792;4.372;2023-02-25T05:57:40;5.80;99.90
24011;DHT22;12217;50.792;4.372;2023-02-25T06:00:07;5.70;99.90
24011;DHT22;12217;50.792;4.372;2023-02-25T06:02:35;5.80;99.90
24011;DHT22;12217;50.792;4.372;2023-02-25T06:05:01;5.80;99.90
24011;DHT22;12217;50.792;4.372;2023-02-25T06:07:30;5.80;99.90
24011;DHT22;12217;50.792;4.372;2023-02-25T06:09:58;5.70;99.90
24011;DHT22;12217;50.792;4.372;2023-02-25T06:12:31;5.80;99.90
24011;DHT22;12217;50.792;4.372;2023-02-25T06:14:57;6.10;99.90
24011;DHT22;12217;50.792;4.372;2023-02-25T06:17:23;6.40;99.90
24011;DHT22;12217;50.792;4.372;2023-02-25T06:19:52;6.10;99.90
24011;DHT22;12217;50.792;4.372;2023-02-25T06:22:18;5.60;99.90
24011;DHT22;12217;50.792;4.372;2023-02-25T06:24:45;5.80;99.90
24011;DHT22;12217;50.792;4.372;2023-02-25T06:27:10;6.00;99.90
24011;DHT22;12217;50.792;4.372;2023-02-25T06:29:36;6.20;99.90
24011;DHT22;12217;50.792;4.372;2023-02-25T06:32:09;6.30;99.90
24011;DHT22;12217;50.792;4.372;2023-02-25T06:34:35;6.40;99.90
24011;DHT22;12217;50.792;4.372;2023-02-25T06:37:01;6.60;99.90
24011;DHT22;12217;50.792;4.372;2023-02-25T06:39:26;6.60;99.90
24011;DHT22;12217;50.792;4.372;2023-02-25T06:41:52;6.60;99.90
24011;DHT22;12217;50.792;4.372;2023-02-25T06:44:17;6.80;99.90
24011;DHT22;12217;50.792;4.372;2023-02-25T06:46:43;6.90;99.90
24011;DHT22;12217;50.792;4.372;2023-02-25T06:49:09;6.70;99.90
24011;DHT22;12217;50.792;4.372;2023-02-25T06:51:35;6.60;99.90
24011;DHT22;12217;50.792;4.372;2023-02-25T06:54:02;6.30;99.90
24011;DHT22;12217;50.792;4.372;2023-02-25T06:56:28;6.30;99.90
24011;DHT22;12217;50.792;4.372;2023-02-25T06:58:55;6.50;99.90
24011;DHT22;12217;50.792;4.372;2023-02-25T07:01:23;6.80;99.90
24011;DHT22;12217;50.792;4.372;2023-02-25T07:03:49;6.70;99.90
24011;DHT22;12217;50.792;4.372;2023-02-25T07:06:15;6.80;99.90
24011;DHT22;12217;50.792;4.372;2023-02-25T07:08:43;6.80;99.90
24011;DHT22;12217;50.792;4.372;2023-02-25T07:11:30;6.90;99.90
24011;DHT22;12217;50.792;4.372;2023-02-25T07:13:56;6.70;99.90
24011;DHT22;12217;50.792;4.372;2023-02-25T07:16:21;6.70;99.90
24011;DHT22;12217;50.792;4.372;2023-02-25T07:18:47;6.80;99.90
24011;DHT22;12217;50.792;4.372;2023-02-25T07:21:13;6.90;99.90
24011;DHT22;12217;50.792;4.372;2023-02-25T07:23:40;7.00;99.90
24011;DHT22;12217;50.792;4.372;2023-02-25T07:26:08;6.70;99.90
24011;DHT22;12217;50.792;4.372;2023-02-25T07:28:34;6.70;99.90
24011;DHT22;12217;50.792;4.372;2023-02-25T07:31:11;6.60;99.90
24011;DHT22;12217;50.792;4.372;2023-02-25T07:33:37;6.50;99.90
24011;DHT22;12217;50.792;4.372;2023-02-25T07:36:03;6.50;99.90
24011;DHT22;12217;50.792;4.372;2023-02-25T07:38:29;6.50;99.90
24011;DHT22;12217;50.792;4.372;2023-02-25T07:40:55;6.80;99.90
24011;DHT22;12217;50.792;4.372;2023-02-25T07:43:21;6.90;99.90
24011;DHT22;12217;50.792;4.372;2023-02-25T07:45:48;7.20;99.90
24011;DHT22;12217;50.792;4.372;2023-02-25T07:48:14;6.90;99.90
24011;DHT22;12217;50.792;4.372;2023-02-25T07:50:39;6.80;99.90
24011;DHT22;12217;50.792;4.372;2023-02-25T07:53:05;7.00;99.90
24011;DHT22;12217;50.792;4.372;2023-02-25T07:55:31;7.10;99.90
24011;DHT22;12217;50.792;4.372;2023-02-25T07:57:56;6.90;99.90
24011;DHT22;12217;50.792;4.372;2023-02-25T08:00:22;6.80;99.90
24011;DHT22;12217;50.792;4.372;2023-02-25T08:02:48;6.80;99.90
24011;DHT22;12217;50.792;4.372;2023-02-25T08:05:13;6.90;99.90
24011;DHT22;12217;50.792;4.372;2023-02-25T08:07:39;7.20;99.90
24011;DHT22;12217;50.792;4.372;2023-02-25T08:10:05;7.20;99.90
24011;DHT22;12217;50.792;4.372;2023-02-25T08:12:30;7.40;99.90
24011;DHT22;12217;50.792;4.372;2023-02-25T08:14:56;7.40;99.90
24011;DHT22;12217;50.792;4.372;2023-02-25T08:17:26;7.40;99.90
24011;DHT22;12217;50.792;4.372;2023-02-25T08:19:55;7.30;99.90
24011;DHT22;12217;50.792;4.372;2023-02-25T08:22:21;7.30;99.90
24011;DHT22;12217;50.792;4.372;2023-02-25T08:24:46;7.70;99.90
24011;DHT22;12217;50.792;4.372;2023-02-25T08:27:12;8.00;99.90
24011;DHT22;12217;50.792;4.372;2023-02-25T08:29:41;7.90;99.90
24011;DHT22;12217;50.792;4.372;2023-02-25T08:32:06;8.20;99.90
24011;DHT22;12217;50.792;4.372;2023-02-25T08:34:32;8.40;99.90
24011;DHT22;12217;50.792;4.372;2023-02-25T08:36:59;8.10;99.90
24011;DHT22;12217;50.792;4.372;2023-02-25T08:39:25;8.30;99.90
24011;DHT22;12217;50.792;4.372;2023-02-25T08:41:51;8.30;99.90
24011;DHT22;12217;50.792;4.372;2023-02-25T08:44:16;8.50;99.90
24011;DHT22;12217;50.792;4.372;2023-02-25T08:46:44;8.60;99.90
24011;DHT22;12217;50.792;4.372;2023-02-25T08:49:10;8.60;99.90
24011;DHT22;12217;50.792;4.372;2023-02-25T08:51:36;8.80;99.90
24011;DHT22;12217;50.792;4.372;2023-02-25T08:54:06;8.80;99.90
24011;DHT22;12217;50.792;4.372;2023-02-25T08:56:34;8.80;99.90
24011;DHT22;12217;50.792;4.372;2023-02-25T08:59:00;8.60;99.90
24011;DHT22;12217;50.792;4.372;2023-02-25T09:01:26;8.70;99.90
24011;DHT22;12217;50.792;4.372;2023-02-25T09:04:12;8.70;99.90
24011;DHT22;12217;50.792;4.372;2023-02-25T09:06:39;8.90;99.90
24011;DHT22;12217;50.792;4.372;2023-02-25T09:09:05;9.10;99.90
24011;DHT22;12217;50.792;4.372;2023-02-25T09:11:31;9.20;99.90
24011;DHT22;12217;50.792;4.372;2023-02-25T09:13:57;9.20;99.90
24011;DHT22;12217;50.792;4.372;2023-02-25T09:16:23;9.40;99.90
24011;DHT22;12217;50.792;4.372;2023-02-25T09:18:49;9.50;99.90
24011;DHT22;12217;50.792;4.372;2023-02-25T09:21:16;9.50;99.90
24011;DHT22;12217;50.792;4.372;2023-02-25T09:23:42;9.40;99.90
24011;DHT22;12217;50.792;4.372;2023-02-25T09:26:08;9.50;99.90
24011;DHT22;12217;50.792;4.372;2023-02-25T09:28:35;9.50;99.90
24011;DHT22;12217;50.792;4.372;2023-02-25T09:31:00;9.60;99.90
24011;DHT22;12217;50.792;4.372;2023-02-25T09:33:31;9.50;99.90
24011;DHT22;12217;50.792;4.372;2023-02-25T09:36:09;9.20;99.90
24011;DHT22;12217;50.792;4.372;2023-02-25T09:38:36;8.90;99.90
24011;DHT22;12217;50.792;4.372;2023-02-25T09:41:02;8.80;99.90
24011;DHT22;12217;50.792;4.372;2023-02-25T09:43:39;8.50;99.90
24011;DHT22;12217;50.792;4.372;2023-02-25T09:46:12;8.50;99.90
24011;DHT22;12217;50.792;4.372;2023-02-25T09:48:44;8.30;99.90
24011;DHT22;12217;50.792;4.372;2023-02-25T09:51:21;8.40;99.90
24011;DHT22;12217;50.792;4.372;2023-02-25T09:53:55;8.50;99.90
24011;DHT22;12217;50.792;4.372;2023-02-25T09:56:25;8.70;99.90
24011;DHT22;12217;50.792;4.372;2023-02-25T09:58:56;9.10;99.90
24011;DHT22;12217;50.792;4.372;2023-02-25T10:01:35;9.40;99.90
24011;DHT22;12217;50.792;4.372;2023-02-25T10:04:12;9.50;99.90
24011;DHT22;12217;50.792;4.372;2023-02-25T10:06:46;9.60;99.90
24011;DHT22;12217;50.792;4.372;2023-02-25T10:12:30;9.60;99.90
24011;DHT22;12217;50.792;4.372;2023-02-25T10:15:39;9.50;99.90
24011;DHT22;12217;50.792;4.372;2023-02-25T10:23:34;10.10;99.90
24011;DHT22;12217;50.792;4.372;2023-02-25T10:26:15;10.00;99.90
24011;DHT22;12217;50.792;4.372;2023-02-25T10:28:44;10.00;99.90
24011;DHT22;12217;50.792;4.372;2023-02-25T10:31:15;10.30;99.90
24011;DHT22;12217;50.792;4.372;2023-02-25T10:33:45;10.20;99.90
24011;DHT22;12217;50.792;4.372;2023-02-25T10:36:14;10.40;99.90
24011;DHT22;12217;50.792;4.372;2023-02-25T10:38:46;10.60;99.90
24011;DHT22;12217;50.792;4.372;2023-02-25T10:41:13;10.70;99.90
24011;DHT22;12217;50.792;4.372;2023-02-25T10:43:39;10.90;99.90
24011;DHT22;12217;50.792;4.372;2023-02-25T10:46:18;11.10;99.90
24011;DHT22;12217;50.792;4.372;2023-02-25T10:48:57;11.10;99.90
24011;DHT22;12217;50.792;4.372;2023-02-25T10:51:24;11.10;99.90
24011;DHT22;12217;50.792;4.372;2023-02-25T10:56:18;10.40;99.90
24011;DHT22;12217;50.792;4.372;2023-02-25T11:01:38;10.10;99.90
24011;DHT22;12217;50.792;4.372;2023-02-25T11:04:09;10.00;99.90
24011;DHT22;12217;50.792;4.372;2023-02-25T11:06:37;9.90;99.90
24011;DHT22;12217;50.792;4.372;2023-02-25T11:09:28;9.90;99.90
24011;DHT22;12217;50.792;4.372;2023-02-25T11:12:00;9.60;99.90
24011;DHT22;12217;50.792;4.372;2023-02-25T11:17:02;8.90;99.90
24011;DHT22;12217;50.792;4.372;2023-02-25T11:19:30;8.70;99.90
24011;DHT22;12217;50.792;4.372;2023-02-25T11:21:57;8.70;99.90
24011;DHT22;12217;50.792;4.372;2023-02-25T11:24:28;8.90;99.90
24011;DHT22;12217;50.792;4.372;2023-02-25T11:27:36;9.50;99.90
24011;DHT22;12217;50.792;4.372;2023-02-25T11:30:32;11.30;99.90
24011;DHT22;12217;50.792;4.372;2023-02-25T11:32:59;14.20;99.90
24011;DHT22;12217;50.792;4.372;2023-02-25T11:35:37;16.40;99.90
24011;DHT22;12217;50.792;4.372;2023-02-25T11:38:25;18.30;99.90
24011;DHT22;12217;50.792;4.372;2023-02-25T11:40:51;19.90;92.90
24011;DHT22;12217;50.792;4.372;2023-02-25T11:43:21;21.60;84.00
24011;DHT22;12217;50.792;4.372;2023-02-25T11:46:09;22.10;73.10
24011;DHT22;12217;50.792;4.372;2023-02-25T11:51:46;23.50;62.70
24011;DHT22;12217;50.792;4.372;2023-02-25T11:54:18;23.20;59.70
24011;DHT22;12217;50.792;4.372;2023-02-25T11:59:29;21.40;61.50
24011;DHT22;12217;50.792;4.372;2023-02-25T12:02:37;20.10;65.30
24011;DHT22;12217;50.792;4.372;2023-02-25T12:14:09;14.90;88.90
24011;DHT22;12217;50.792;4.372;2023-02-25T12:22:22;12.50;99.90
24011;DHT22;12217;50.792;4.372;2023-02-25T12:25:06;11.90;99.90
24011;DHT22;12217;50.792;4.372;2023-02-25T12:27:59;11.10;99.90
24011;DHT22;12217;50.792;4.372;2023-02-25T12:30:53;10.60;99.90
24011;DHT22;12217;50.792;4.372;2023-02-25T12:36:11;9.80;99.90
24011;DHT22;12217;50.792;4.372;2023-02-25T12:39:07;9.70;99.90
24011;DHT22;12217;50.792;4.372;2023-02-25T12:41:45;9.60;99.90
24011;DHT22;12217;50.792;4.372;2023-02-25T12:44:20;9.70;99.90
24011;DHT22;12217;50.792;4.372;2023-02-25T12:52:30;12.40;99.90
24011;DHT22;12217;50.792;4.372;2023-02-25T12:58:05;14.30;99.90
24011;DHT22;12217;50.792;4.372;2023-02-25T13:00:54;16.10;99.90
24011;DHT22;12217;50.792;4.372;2023-02-25T13:03:51;18.50;99.90
24011;DHT22;12217;50.792;4.372;2023-02-25T13:12:10;22.80;68.30
24011;DHT22;12217;50.792;4.372;2023-02-25T13:34:33;26.80;46.30
24011;DHT22;12217;50.792;4.372;2023-02-25T13:37:20;24.40;47.90
24011;DHT22;12217;50.792;4.372;2023-02-25T14:10:23;19.30;66.10
24011;DHT22;12217;50.792;4.372;2023-02-25T14:15:49;21.70;58.10
24011;DHT22;12217;50.792;4.372;2023-02-25T14:44:24;24.30;48.10
24011;DHT22;12217;50.792;4.372;2023-02-25T14:46:59;23.60;49.20
24011;DHT22;12217;50.792;4.372;2023-02-25T14:49:36;22.70;49.70
24011;DHT22;12217;50.792;4.372;2023-02-25T15:15:07;13.80;70.60
24011;DHT22;12217;50.792;4.372;2023-02-25T15:20:36;12.90;74.70
24011;DHT22;12217;50.792;4.372;2023-02-25T15:23:12;12.70;76.50
24011;DHT22;12217;50.792;4.372;2023-02-25T15:28:32;12.60;80.50
24011;DHT22;12217;50.792;4.372;2023-02-25T15:35:59;12.80;81.90
24011;DHT22;12217;50.792;4.372;2023-02-25T15:41:37;13.00;82.70
24011;DHT22;12217;50.792;4.372;2023-02-25T15:46:41;13.10;83.90
24011;DHT22;12217;50.792;4.372;2023-02-25T15:51:45;15.30;77.00
24011;DHT22;12217;50.792;4.372;2023-02-25T15:56:54;16.50;70.90
24011;DHT22;12217;50.792;4.372;2023-02-25T15:59:45;17.50;69.20
24011;DHT22;12217;50.792;4.372;2023-02-25T16:02:38;19.10;64.00
24011;DHT22;12217;50.792;4.372;2023-02-25T16:07:36;21.00;57.50
24011;DHT22;12217;50.792;4.372;2023-02-25T16:10:23;21.90;55.20
24011;DHT22;12217;50.792;4.372;2023-02-25T16:12:52;21.30;54.80
24011;DHT22;12217;50.792;4.372;2023-02-25T16:15:35;19.60;56.70
24011;DHT22;12217;50.792;4.372;2023-02-25T16:18:28;18.40;58.60
24011;DHT22;12217;50.792;4.372;2023-02-25T16:21:03;17.10;61.80
24011;DHT22;12217;50.792;4.372;2023-02-25T16:23:38;16.20;63.10
24011;DHT22;12217;50.792;4.372;2023-02-25T16:26:42;15.40;65.80
24011;DHT22;12217;50.792;4.372;2023-02-25T16:29:20;14.50;68.30
24011;DHT22;12217;50.792;4.372;2023-02-25T16:40:38;13.80;74.50
24011;DHT22;12217;50.792;4.372;2023-02-25T16:43:04;13.40;73.20
24011;DHT22;12217;50.792;4.372;2023-02-25T16:45:37;13.20;73.90
24011;DHT22;12217;50.792;4.372;2023-02-25T16:48:13;12.90;74.70
24011;DHT22;12217;50.792;4.372;2023-02-25T16:50:39;12.50;75.60
24011;DHT22;12217;50.792;4.372;2023-02-25T16:53:16;12.30;76.50
24011;DHT22;12217;50.792;4.372;2023-02-25T16:55:43;12.20;77.60
24011;DHT22;12217;50.792;4.372;2023-02-25T17:00:56;11.80;79.10
24011;DHT22;12217;50.792;4.372;2023-02-25T17:03:26;11.60;79.60
24011;DHT22;12217;50.792;4.372;2023-02-25T17:08:26;11.00;79.10
24011;DHT22;12217;50.792;4.372;2023-02-25T17:10:53;10.80;79.80
24011;DHT22;12217;50.792;4.372;2023-02-25T17:15:51;10.60;80.90
24011;DHT22;12217;50.792;4.372;2023-02-25T17:18:24;10.50;81.20
24011;DHT22;12217;50.792;4.372;2023-02-25T17:21:02;10.50;82.60
24011;DHT22;12217;50.792;4.372;2023-02-25T17:23:29;10.30;81.60
24011;DHT22;12217;50.792;4.372;2023-02-25T17:25:57;10.00;81.70
24011;DHT22;12217;50.792;4.372;2023-02-25T17:28:26;9.90;81.30
24011;DHT22;12217;50.792;4.372;2023-02-25T17:31:05;9.80;81.10
24011;DHT22;12217;50.792;4.372;2023-02-25T17:33:31;9.70;82.00
24011;DHT22;12217;50.792;4.372;2023-02-25T17:36:03;9.70;80.60
24011;DHT22;12217;50.792;4.372;2023-02-25T17:38:30;9.60;80.40
24011;DHT22;12217;50.792;4.372;2023-02-25T17:40:56;9.50;80.90
24011;DHT22;12217;50.792;4.372;2023-02-25T17:43:31;9.30;80.80
24011;DHT22;12217;50.792;4.372;2023-02-25T17:46:46;9.10;82.40
24011;DHT22;12217;50.792;4.372;2023-02-25T17:48:57;9.10;82.50
24011;DHT22;12217;50.792;4.372;2023-02-25T17:51:30;9.20;83.00
24011;DHT22;12217;50.792;4.372;2023-02-25T17:53:59;9.30;83.30
24011;DHT22;12217;50.792;4.372;2023-02-25T17:56:32;9.20;82.10
24011;DHT22;12217;50.792;4.372;2023-02-25T18:04:35;8.90;84.40
24011;DHT22;12217;50.792;4.372;2023-02-25T18:09:54;9.00;84.00
24011;DHT22;12217;50.792;4.372;2023-02-25T18:12:34;8.90;84.40
24011;DHT22;12217;50.792;4.372;2023-02-25T18:15:14;8.80;84.80
24011;DHT22;12217;50.792;4.372;2023-02-25T18:17:42;8.80;85.90
24011;DHT22;12217;50.792;4.372;2023-02-25T18:20:34;8.80;85.10
24011;DHT22;12217;50.792;4.372;2023-02-25T18:23:01;8.90;86.00
24011;DHT22;12217;50.792;4.372;2023-02-25T18:25:39;8.90;86.00
24011;DHT22;12217;50.792;4.372;2023-02-25T18:28:11;8.70;86.80
24011;DHT22;12217;50.792;4.372;2023-02-25T18:30:37;8.70;87.00
24011;DHT22;12217;50.792;4.372;2023-02-25T18:33:03;8.70;87.60
24011;DHT22;12217;50.792;4.372;2023-02-25T18:35:30;8.60;87.90
24011;DHT22;12217;50.792;4.372;2023-02-25T18:37:58;8.60;88.80
24011;DHT22;12217;50.792;4.372;2023-02-25T18:40:29;8.60;88.60
24011;DHT22;12217;50.792;4.372;2023-02-25T18:42:56;8.30;88.90
24011;DHT22;12217;50.792;4.372;2023-02-25T18:45:24;8.30;90.10
24011;DHT22;12217;50.792;4.372;2023-02-25T18:47:52;8.30;90.90
24011;DHT22;12217;50.792;4.372;2023-02-25T18:50:18;8.30;90.90
24011;DHT22;12217;50.792;4.372;2023-02-25T18:52:44;8.30;91.30
24011;DHT22;12217;50.792;4.372;2023-02-25T18:55:23;8.10;91.70
24011;DHT22;12217;50.792;4.372;2023-02-25T18:57:50;8.00;92.50
24011;DHT22;12217;50.792;4.372;2023-02-25T19:00:17;8.00;93.00
24011;DHT22;12217;50.792;4.372;2023-02-25T19:02:52;8.10;93.10
24011;DHT22;12217;50.792;4.372;2023-02-25T19:05:20;8.10;93.30
24011;DHT22;12217;50.792;4.372;2023-02-25T19:07:46;8.00;93.50
24011;DHT22;12217;50.792;4.372;2023-02-25T19:10:26;7.90;94.30
24011;DHT22;12217;50.792;4.372;2023-02-25T19:12:59;7.90;94.60
24011;DHT22;12217;50.792;4.372;2023-02-25T19:15:26;8.00;94.60
24011;DHT22;12217;50.792;4.372;2023-02-25T19:17:51;8.00;94.60
24011;DHT22;12217;50.792;4.372;2023-02-25T19:20:18;8.10;94.90
24011;DHT22;12217;50.792;4.372;2023-02-25T19:22:47;8.00;95.10
24011;DHT22;12217;50.792;4.372;2023-02-25T19:27:44;7.90;96.40
24011;DHT22;12217;50.792;4.372;2023-02-25T19:30:15;7.90;96.20
24011;DHT22;12217;50.792;4.372;2023-02-25T19:32:41;7.80;96.30
24011;DHT22;12217;50.792;4.372;2023-02-25T19:35:07;7.80;96.90
24011;DHT22;12217;50.792;4.372;2023-02-25T19:37:37;7.90;96.70
24011;DHT22;12217;50.792;4.372;2023-02-25T19:40:05;7.90;96.80
24011;DHT22;12217;50.792;4.372;2023-02-25T19:42:38;7.80;97.10
24011;DHT22;12217;50.792;4.372;2023-02-25T19:45:06;7.60;97.70
24011;DHT22;12217;50.792;4.372;2023-02-25T19:47:32;7.50;98.40
24011;DHT22;12217;50.792;4.372;2023-02-25T19:49:58;7.60;98.90